Vingaren — OZ2131 — position and weather

sailwx.info

Track history (hours):
 
Tides and Currents Weather Stations Pressure Air Temp Water Temp Dewpoint Dewpoint Depression Visibility Wind Speed Wind Dir Waves Ship Positions

Vingaren

Last reported at 2015-Apr-27 15:28 UTC. Time now 2015-Apr-27 15:42 UTC.
Position N 54°09' E 012°07'.

Length 89 m; draft 6.4 m.

Type: Cargo ship. MMSI: 231844000.

Date/timePositionNaut miles runAvg speedWind from/ knotsBaromVisibWave heightAir tempDewpointWater temp
2015-Apr-27 15:28N 54°09' E 012°07'0 0.0
2015-Apr-27 14:28N 54°09' E 012°07'0 0.0
2015-Apr-27 13:28N 54°09' E 012°07'0 0.0
2015-Apr-27 10:28N 54°09' E 012°07'0 0.0
2015-Apr-27 09:31N 54°09' E 012°07'0 0.0
2015-Apr-27 08:31N 54°09' E 012°07'0 0.0
2015-Apr-27 07:19N 54°09' E 012°07'0 0.0
2015-Apr-27 06:28N 54°09' E 012°07'0 0.0
2015-Apr-27 05:13N 54°09' E 012°07'0 0.0
2015-Apr-27 04:28N 54°09' E 012°07'0 0.0
2015-Apr-27 03:31N 54°09' E 012°07'0 0.0
2015-Apr-27 02:31N 54°09' E 012°07'0 0.0
2015-Apr-27 01:31N 54°09' E 012°07'0 0.0
2015-Apr-27 00:28N 54°09' E 012°07'0 0.0
2015-Apr-26 23:28N 54°09' E 012°07'0 0.0
2015-Apr-26 22:25N 54°09' E 012°07'0 0.0
2015-Apr-26 21:25N 54°09' E 012°07'0 0.0
2015-Apr-26 20:19N 54°09' E 012°07'0 0.0
2015-Apr-26 19:31N 54°09' E 012°07'0 0.0
2015-Apr-26 18:16N 54°09' E 012°07'0 0.0
2015-Apr-26 17:25N 54°09' E 012°07'0 0.0
2015-Apr-26 16:31N 54°09' E 012°07'0 0.0
2015-Apr-26 15:22N 54°09' E 012°07'0 0.0
2015-Apr-26 14:31N 54°09' E 012°07'0 0.0
2015-Apr-26 13:22N 54°09' E 012°07'0 0.0
2015-Apr-26 12:22N 54°09' E 012°07'0 0.0
2015-Apr-26 11:28N 54°09' E 012°07'0 0.0
2015-Apr-26 10:34N 54°09' E 012°07'0 0.0
2015-Apr-26 09:19N 54°09' E 012°07'0 0.0
2015-Apr-26 08:24N 54°09' E 012°07'0 0.0
2015-Apr-26 07:21N 54°09' E 012°07'0 0.0
2015-Apr-26 06:30N 54°09' E 012°07'0 0.0
2015-Apr-26 05:27N 54°09' E 012°07'1 1.5
2015-Apr-26 04:34N 54°10' E 012°06'8 7.8
2015-Apr-26 03:33N 54°18' E 012°03'8 8.3
2015-Apr-26 02:33N 54°26' E 012°08'8 8.5
2015-Apr-26 01:33N 54°34' E 012°13'11 8.0
2015-Apr-26 00:08N 54°41' E 012°27'8 8.5
2015-Apr-25 23:15N 54°46' E 012°38'17 8.0
2015-Apr-25 21:06N 54°52' E 013°06'4 8.1
2015-Apr-25 20:34N 54°53' E 013°13'9 8.1
2015-Apr-25 19:28N 54°56' E 013°27'9 8.5
2015-Apr-25 18:25N 54°59' E 013°42'8 8.6
2015-Apr-25 17:26N 55°02' E 013°56'10 8.2
2015-Apr-25 16:11N 55°09' E 014°10'6 9.0
2015-Apr-25 15:34N 55°13' E 014°16'9 9.0
2015-Apr-25 14:32N 55°20' E 014°27'9 9.0
2015-Apr-25 13:33N 55°27' E 014°37'9 8.8
2015-Apr-25 12:33N 55°31' E 014°50'9 9.0
2015-Apr-25 11:33N 55°36' E 015°04'9 9.0
2015-Apr-25 10:33N 55°40' E 015°18'13 8.8
2015-Apr-25 09:04N 55°47' E 015°38'5 8.7
2015-Apr-25 08:33N 55°49' E 015°45'9 8.8
2015-Apr-25 07:33N 55°54' E 015°58'  
Track history (hours):
 
Tides and Currents Weather Stations Pressure Air Temp Water Temp Dewpoint Dewpoint Depression Visibility Wind Speed Wind Dir Waves Ship Positions

Vingaren

Last reported at 2015-Apr-27 15:28 UTC. Time now 2015-Apr-27 15:42 UTC.
Position N 54°09' E 012°07'.

Length 89 m; draft 6.4 m.

Type: Cargo ship. MMSI: 231844000.

Date/timePositionNaut miles runAvg speedWind from/ knotsBaromVisibWave heightAir tempDewpointWater temp
2015-Apr-27 15:28N 54°09' E 012°07'0 0.0
2015-Apr-27 14:28N 54°09' E 012°07'0 0.0
2015-Apr-27 13:28N 54°09' E 012°07'0 0.0
2015-Apr-27 10:28N 54°09' E 012°07'0 0.0
2015-Apr-27 09:31N 54°09' E 012°07'0 0.0
2015-Apr-27 08:31N 54°09' E 012°07'0 0.0
2015-Apr-27 07:19N 54°09' E 012°07'0 0.0
2015-Apr-27 06:28N 54°09' E 012°07'0 0.0
2015-Apr-27 05:13N 54°09' E 012°07'0 0.0
2015-Apr-27 04:28N 54°09' E 012°07'0 0.0
2015-Apr-27 03:31N 54°09' E 012°07'0 0.0
2015-Apr-27 02:31N 54°09' E 012°07'0 0.0
2015-Apr-27 01:31N 54°09' E 012°07'0 0.0
2015-Apr-27 00:28N 54°09' E 012°07'0 0.0
2015-Apr-26 23:28N 54°09' E 012°07'0 0.0
2015-Apr-26 22:25N 54°09' E 012°07'0 0.0
2015-Apr-26 21:25N 54°09' E 012°07'0 0.0
2015-Apr-26 20:19N 54°09' E 012°07'0 0.0
2015-Apr-26 19:31N 54°09' E 012°07'0 0.0
2015-Apr-26 18:16N 54°09' E 012°07'0 0.0
2015-Apr-26 17:25N 54°09' E 012°07'0 0.0
2015-Apr-26 16:31N 54°09' E 012°07'0 0.0
2015-Apr-26 15:22N 54°09' E 012°07'0 0.0
2015-Apr-26 14:31N 54°09' E 012°07'0 0.0
2015-Apr-26 13:22N 54°09' E 012°07'0 0.0
2015-Apr-26 12:22N 54°09' E 012°07'0 0.0
2015-Apr-26 11:28N 54°09' E 012°07'0 0.0
2015-Apr-26 10:34N 54°09' E 012°07'0 0.0
2015-Apr-26 09:19N 54°09' E 012°07'0 0.0
2015-Apr-26 08:24N 54°09' E 012°07'0 0.0
2015-Apr-26 07:21N 54°09' E 012°07'0 0.0
2015-Apr-26 06:30N 54°09' E 012°07'0 0.0
2015-Apr-26 05:27N 54°09' E 012°07'1 1.5
2015-Apr-26 04:34N 54°10' E 012°06'8 7.8
2015-Apr-26 03:33N 54°18' E 012°03'8 8.3
2015-Apr-26 02:33N 54°26' E 012°08'8 8.5
2015-Apr-26 01:33N 54°34' E 012°13'11 8.0
2015-Apr-26 00:08N 54°41' E 012°27'8 8.5
2015-Apr-25 23:15N 54°46' E 012°38'17 8.0
2015-Apr-25 21:06N 54°52' E 013°06'4 8.1
2015-Apr-25 20:34N 54°53' E 013°13'9 8.1
2015-Apr-25 19:28N 54°56' E 013°27'9 8.5
2015-Apr-25 18:25N 54°59' E 013°42'8 8.6
2015-Apr-25 17:26N 55°02' E 013°56'10 8.2
2015-Apr-25 16:11N 55°09' E 014°10'6 9.0
2015-Apr-25 15:34N 55°13' E 014°16'9 9.0
2015-Apr-25 14:32N 55°20' E 014°27'9 9.0
2015-Apr-25 13:33N 55°27' E 014°37'9 8.8
2015-Apr-25 12:33N 55°31' E 014°50'9 9.0
2015-Apr-25 11:33N 55°36' E 015°04'9 9.0
2015-Apr-25 10:33N 55°40' E 015°18'13 8.8
2015-Apr-25 09:04N 55°47' E 015°38'5 8.7
2015-Apr-25 08:33N 55°49' E 015°45'9 8.8
2015-Apr-25 07:33N 55°54' E 015°58'  

Dump ship's entire track history